Date,TemperatureHighF,TemperatureAvgF,TemperatureLowF,DewpointHighF,DewpointAvgF,DewpointLowF,HumidityHigh,HumidityAvg,HumidityLow,PressureMaxIn,PressureMinIn,WindSpeedMaxMPH,WindSpeedAvgMPH,GustSpeedMaxMPH,PrecipitationSumIn
2013-5-1,41,39,36,36,35,33,90,85,80,30.53,30.40,6,1,8,0.00
2013-5-3,73,66,54,53,49,44,84,55,37,30.35,30.21,11,4,16,0.00
2013-5-4,78,64,46,53,47,39,91,59,26,30.23,29.98,13,4,21,0.00
2013-5-5,84,69,51,58,50,44,80,53,34,29.98,29.74,10,3,20,0.00
2013-5-6,84,70,57,57,50,47,78,52,34,29.83,29.72,12,3,15,0.00
2013-5-7,69,60,49,57,53,47,95,79,63,29.93,29.75,10,3,16,0.00
2013-5-8,64,57,50,56,52,48,95,85,74,30.10,29.93,11,4,16,0.00
2013-5-9,71,58,46,58,52,45,98,82,59,30.19,30.07,11,3,13,0.00
2013-5-10,75,61,47,61,52,-100,97,76,55,30.18,30.08,8,2,14,0.00
2013-5-11,77,62,53,59,54,-100,95,76,50,30.13,29.94,8,2,14,0.06
2013-5-12,67,60,56,61,58,55,99,92,73,30.02,29.95,10,3,18,0.70
2013-5-13,64,56,49,57,52,44,97,87,67,30.12,29.84,21,6,30,0.35
2013-5-14,62,54,49,48,44,41,89,71,47,30.19,30.09,8,4,15,0.03
2013-5-15,52,51,50,47,46,45,88,85,76,30.09,30.06,2,0,5,0.00
2013-5-22,58,54,47,50,47,45,96,80,67,29.92,29.81,11,4,17,0.23
2013-5-23,60,51,44,50,47,43,98,85,62,29.97,29.90,10,4,19,0.28
2013-5-24,63,54,43,50,46,42,99,79,54,29.99,29.94,12,3,19,0.03
2013-5-25,62,54,47,53,49,44,94,84,64,29.99,29.96,8,2,13,0.24
2013-5-26,57,52,50,53,50,48,97,92,84,29.97,29.92,8,4,14,0.60
2013-5-27,60,56,52,57,53,50,97,91,75,29.92,29.67,8,4,17,0.28
2013-5-28,60,56,53,54,52,49,98,85,69,29.83,29.70,14,6,24,0.15
2013-5-29,58,53,51,53,51,48,97,91,78,29.90,29.64,12,4,19,0.09
2013-5-30,60,54,50,53,49,46,97,84,66,30.19,29.90,9,4,16,0.53
2013-5-31,66,55,49,51,49,46,99,81,54,30.29,30.19,5,1,11,0.42